Time;durP1;ratioP1;P1;durP2;ratioP2;P2;SDS_P1;SDS_P2;PMS_P1;PMS_P2;Temp;Humidity;BMP_temperature;BMP_pressure;BME280_temperature;BME280_humidity;BME280_pressure;Samples;Min_cycle;Max_cycle;Signal;HPM_P1;HPM_P2
2022/07/23 00:00:22;;;;;;;4.72;4.00;;;19.90;99.90;;;;;;2128131;27;20023;-69
2022/07/23 00:01:23;;;;;;;8.73;4.30;;;19.90;99.90;;;;;;2126928;27;20031;-69
2022/07/23 00:02:24;;;;;;;7.70;4.68;;;19.90;99.90;;;;;;2127500;27;20051;-69
2022/07/23 00:03:25;;;;;;;8.27;5.30;;;19.90;99.90;;;;;;2127280;27;20044;-69
2022/07/23 00:04:25;;;;;;;8.82;5.43;;;19.90;99.90;;;;;;2128382;27;20090;-69
2022/07/23 00:05:26;;;;;;;10.48;5.05;;;19.80;99.90;;;;;;2129746;27;20121;-69
2022/07/23 00:06:27;;;;;;;9.02;4.82;;;19.80;99.90;;;;;;2129372;27;20599;-69
2022/07/23 00:07:27;;;;;;;8.23;4.93;;;19.80;99.90;;;;;;2128191;27;20101;-69
2022/07/23 00:08:28;;;;;;;6.18;4.10;;;19.80;99.90;;;;;;2127923;27;20088;-69
2022/07/23 00:09:31;;;;;;;8.25;5.22;;;19.80;99.90;;;;;;2127461;27;20022;-69
2022/07/23 00:10:31;;;;;;;10.30;5.22;;;19.80;99.90;;;;;;2128202;27;20138;-69
2022/07/23 00:11:32;;;;;;;6.90;4.30;;;19.80;99.90;;;;;;2122038;27;20108;-69
2022/07/23 00:12:33;;;;;;;6.28;4.40;;;19.80;99.90;;;;;;2127187;27;20015;-69
2022/07/23 00:13:34;;;;;;;4.80;4.30;;;19.80;99.90;;;;;;2127049;27;20023;-69
2022/07/23 00:14:34;;;;;;;5.38;4.25;;;19.80;99.90;;;;;;2129098;27;20019;-69
2022/07/23 00:15:35;;;;;;;7.90;4.13;;;19.70;99.90;;;;;;2122617;27;20023;-69
2022/07/23 00:16:35;;;;;;;5.40;4.88;;;19.70;99.90;;;;;;2126388;27;20027;-69
2022/07/23 00:17:36;;;;;;;7.40;4.80;;;19.70;99.90;;;;;;2127497;27;20027;-69
2022/07/23 00:18:37;;;;;;;8.65;5.68;;;19.70;99.90;;;;;;2125866;27;20023;-69
2022/07/23 00:19:37;;;;;;;6.20;4.82;;;19.70;99.90;;;;;;2124421;27;20071;-69
2022/07/23 00:20:38;;;;;;;5.85;5.25;;;19.70;99.90;;;;;;2128290;27;20477;-69
2022/07/23 00:21:39;;;;;;;7.03;5.10;;;19.70;99.90;;;;;;2128879;27;20118;-69
2022/07/23 00:22:53;;;;;;;6.15;5.60;;;19.70;99.90;;;;;;2129072;27;20050;-69
2022/07/23 00:23:54;;;;;;;7.57;5.43;;;19.70;99.90;;;;;;2123678;27;20466;-69
2022/07/23 00:24:56;;;;;;;8.55;5.40;;;19.60;99.90;;;;;;2128886;27;20453;-69
2022/07/23 00:25:56;;;;;;;6.93;5.32;;;19.60;99.90;;;;;;2126021;27;20905;-69
2022/07/23 00:26:57;;;;;;;9.02;5.93;;;19.60;99.90;;;;;;2127004;27;20888;-69
2022/07/23 00:27:59;;;;;;;6.78;4.75;;;19.60;99.90;;;;;;2127289;27;20147;-69
2022/07/23 00:28:59;;;;;;;6.03;4.63;;;19.60;99.90;;;;;;2126880;27;20027;-69
2022/07/23 00:30:00;;;;;;;7.25;4.47;;;19.60;99.90;;;;;;2126928;27;20025;-69
2022/07/23 00:31:01;;;;;;;8.52;5.18;;;19.60;99.90;;;;;;2128534;27;20011;-69
2022/07/23 00:32:02;;;;;;;7.57;5.25;;;19.60;99.90;;;;;;2126226;27;20053;-69
2022/07/23 00:33:05;;;;;;;6.15;5.30;;;19.50;99.90;;;;;;2127969;27;20023;-69
2022/07/23 00:34:06;;;;;;;7.03;5.13;;;19.60;99.90;;;;;;2126740;27;20397;-69
2022/07/23 00:35:06;;;;;;;8.90;5.88;;;19.50;99.90;;;;;;2126912;27;20022;-69
2022/07/23 00:36:07;;;;;;;6.25;5.63;;;19.50;99.90;;;;;;2125790;27;20035;-69
2022/07/23 00:37:08;;;;;;;6.43;4.57;;;19.50;99.90;;;;;;2128587;27;20015;-69
2022/07/23 00:38:10;;;;;;;6.63;5.50;;;19.50;99.90;;;;;;2126660;27;20047;-69
2022/07/23 00:39:11;;;;;;;7.32;5.50;;;19.50;99.90;;;;;;2128245;27;20046;-69
2022/07/23 00:40:12;;;;;;;6.35;5.75;;;19.50;99.90;;;;;;2126386;27;20470;-69
2022/07/23 00:41:12;;;;;;;7.82;5.03;;;19.50;99.90;;;;;;2128759;27;20373;-69
2022/07/23 00:42:13;;;;;;;6.03;5.20;;;19.50;99.90;;;;;;2128500;27;20037;-70
2022/07/23 00:43:14;;;;;;;7.82;6.15;;;19.50;99.90;;;;;;2127461;27;20140;-70
2022/07/23 00:44:16;;;;;;;6.95;4.97;;;19.50;99.90;;;;;;2127053;27;20094;-70
2022/07/23 00:45:17;;;;;;;10.27;6.40;;;19.50;99.90;;;;;;2125343;27;20034;-69
2022/07/23 00:46:21;;;;;;;7.00;6.07;;;19.50;99.90;;;;;;2126749;27;20038;-69
2022/07/23 00:47:22;;;;;;;6.97;6.03;;;19.50;99.90;;;;;;2126753;27;20067;-69
2022/07/23 00:48:22;;;;;;;9.40;6.00;;;19.50;99.90;;;;;;2126513;27;20019;-69
2022/07/23 00:49:25;;;;;;;7.85;6.40;;;19.40;99.90;;;;;;2128877;27;20011;-69
2022/07/23 00:50:27;;;;;;;7.55;6.75;;;19.50;99.90;;;;;;2127479;27;20457;-69
2022/07/23 00:51:27;;;;;;;7.18;6.20;;;19.40;99.90;;;;;;2127267;27;20143;-69
2022/07/23 00:52:28;;;;;;;7.53;6.60;;;19.40;99.90;;;;;;2126276;27;20101;-69
2022/07/23 00:53:29;;;;;;;7.72;5.22;;;19.30;99.90;;;;;;2126394;27;20025;-69
2022/07/23 00:54:29;;;;;;;8.55;5.57;;;19.30;99.90;;;;;;2127092;27;20031;-69
2022/07/23 00:55:30;;;;;;;7.25;6.07;;;19.30;99.90;;;;;;2127118;27;20030;-69
2022/07/23 00:56:31;;;;;;;6.88;5.25;;;19.30;99.90;;;;;;2127478;27;20030;-69
2022/07/23 00:57:32;;;;;;;8.65;5.88;;;19.30;99.90;;;;;;2127174;27;20026;-69
2022/07/23 00:58:35;;;;;;;6.20;5.60;;;19.30;99.90;;;;;;2118149;27;20027;-69
2022/07/23 00:59:37;;;;;;;7.35;5.95;;;19.30;99.90;;;;;;2119571;27;20573;-70
2022/07/23 01:00:38;;;;;;;8.00;5.82;;;19.30;99.90;;;;;;2128107;27;20027;-70
2022/07/23 01:01:40;;;;;;;6.72;5.82;;;19.30;99.90;;;;;;2126078;27;20093;-69
2022/07/23 01:02:41;;;;;;;9.10;6.20;;;19.30;99.90;;;;;;2124646;27;20027;-69
2022/07/23 01:03:41;;;;;;;11.68;6.50;;;19.30;99.90;;;;;;2125526;27;20027;-69
2022/07/23 01:04:42;;;;;;;5.57;4.82;;;19.30;99.90;;;;;;2128196;27;20413;-69
2022/07/23 01:05:43;;;;;;;6.13;5.22;;;19.30;99.90;;;;;;2126165;27;20025;-70
2022/07/23 01:06:45;;;;;;;7.45;6.50;;;19.30;99.90;;;;;;2129269;27;20015;-69
2022/07/23 01:07:46;;;;;;;7.85;6.00;;;19.30;99.90;;;;;;2125803;27;20065;-70
2022/07/23 01:08:47;;;;;;;5.80;4.78;;;19.30;99.90;;;;;;2126359;27;20068;-70
2022/07/23 01:09:50;;;;;;;11.68;5.63;;;19.30;99.90;;;;;;2125329;27;20385;-69
2022/07/23 01:10:51;;;;;;;6.20;5.60;;;19.30;99.90;;;;;;2126657;27;20054;-69
2022/07/23 01:11:55;;;;;;;8.30;5.18;;;19.30;99.90;;;;;;2124804;27;20458;-69
2022/07/23 01:12:55;;;;;;;6.63;5.25;;;19.30;99.90;;;;;;2127504;27;20094;-69
2022/07/23 01:13:56;;;;;;;10.05;6.22;;;19.20;99.90;;;;;;2125692;27;20137;-69
2022/07/23 01:15:00;;;;;;;10.60;6.03;;;19.20;99.90;;;;;;2125630;27;20011;-69
2022/07/23 01:16:00;;;;;;;8.55;6.15;;;19.20;99.90;;;;;;2122477;27;20026;-69
2022/07/23 01:17:01;;;;;;;8.73;6.93;;;19.20;99.90;;;;;;2125828;27;20385;-69
2022/07/23 01:18:03;;;;;;;8.75;6.38;;;19.20;99.90;;;;;;2126126;27;20467;-69
2022/07/23 01:19:07;;;;;;;7.32;6.63;;;19.20;99.90;;;;;;2126564;27;20026;-69
2022/07/23 01:20:08;;;;;;;6.82;6.13;;;19.20;99.90;;;;;;2125480;27;20029;-69
2022/07/23 01:21:12;;;;;;;6.72;5.88;;;19.20;99.90;;;;;;2125308;27;20019;-69
2022/07/23 01:22:14;;;;;;;12.48;6.65;;;19.20;99.90;;;;;;2125244;27;20094;-69
2022/07/23 01:23:15;;;;;;;6.30;5.70;;;19.20;99.90;;;;;;2126880;27;20016;-69
2022/07/23 01:24:16;;;;;;;9.73;5.70;;;19.20;99.90;;;;;;2127041;27;20045;-69
2022/07/23 01:25:17;;;;;;;7.45;5.93;;;19.20;99.90;;;;;;2121955;27;20039;-69
2022/07/23 01:26:18;;;;;;;8.93;6.18;;;19.20;99.90;;;;;;2126319;27;20470;-69
2022/07/23 01:27:19;;;;;;;7.07;5.70;;;19.20;99.90;;;;;;2125348;27;20442;-69
2022/07/23 01:28:20;;;;;;;8.60;6.05;;;19.20;99.90;;;;;;2123983;27;20022;-69
2022/07/23 01:29:21;;;;;;;7.97;6.50;;;19.20;99.90;;;;;;2123391;27;20011;-69
2022/07/23 01:30:21;;;;;;;5.80;5.00;;;19.20;99.90;;;;;;2124603;27;20043;-70
2022/07/23 01:31:22;;;;;;;8.60;6.47;;;19.10;99.90;;;;;;2126232;27;20069;-69
2022/07/23 01:32:23;;;;;;;6.32;5.00;;;19.10;99.90;;;;;;2124232;27;20016;-69
2022/07/23 01:33:23;;;;;;;6.03;5.43;;;19.10;99.90;;;;;;2127021;27;20496;-69
2022/07/23 01:34:24;;;;;;;12.07;5.15;;;19.10;99.90;;;;;;2126774;27;20054;-69
2022/07/23 01:35:24;;;;;;;7.28;5.82;;;19.10;99.90;;;;;;2125684;27;20038;-69
2022/07/23 01:36:25;;;;;;;9.60;6.93;;;19.10;99.90;;;;;;2125417;27;20027;-69
2022/07/23 01:37:26;;;;;;;7.55;6.15;;;19.10;99.90;;;;;;2125797;27;20076;-69
2022/07/23 01:38:26;;;;;;;8.93;5.93;;;19.10;99.90;;;;;;2126536;27;20031;-69
2022/07/23 01:39:27;;;;;;;8.13;6.65;;;19.10;99.90;;;;;;2126555;27;20398;-69
2022/07/23 01:40:28;;;;;;;5.93;5.43;;;19.10;99.90;;;;;;2127383;27;20027;-69
2022/07/23 01:41:28;;;;;;;6.88;6.18;;;19.10;99.90;;;;;;2123911;27;20535;-69
2022/07/23 01:42:29;;;;;;;7.25;6.63;;;19.10;99.90;;;;;;2123575;27;20022;-69
2022/07/23 01:43:30;;;;;;;7.40;6.68;;;19.20;99.90;;;;;;2126944;27;20394;-69
2022/07/23 01:44:30;;;;;;;5.88;5.20;;;19.10;99.90;;;;;;2125065;27;20030;-69
2022/07/23 01:45:31;;;;;;;7.47;6.78;;;19.10;99.90;;;;;;2126908;27;20019;-69
2022/07/23 01:46:32;;;;;;;5.80;5.20;;;19.10;99.90;;;;;;2124189;27;20031;-69
2022/07/23 01:47:32;;;;;;;6.93;6.28;;;19.10;99.90;;;;;;2127024;27;20023;-69
2022/07/23 01:48:33;;;;;;;8.93;6.63;;;19.10;99.90;;;;;;2127661;27;20019;-69
2022/07/23 01:49:34;;;;;;;5.80;5.20;;;19.10;99.90;;;;;;2126476;27;20031;-69
2022/07/23 01:50:34;;;;;;;7.18;6.22;;;19.10;99.90;;;;;;2124974;27;20037;-69
2022/07/23 01:51:35;;;;;;;11.57;6.70;;;19.10;99.90;;;;;;2126818;27;20023;-69
2022/07/23 01:52:35;;;;;;;7.22;6.53;;;19.10;99.90;;;;;;2124620;27;20030;-69
2022/07/23 01:53:36;;;;;;;11.35;7.38;;;19.10;99.90;;;;;;2124344;27;20023;-69
2022/07/23 01:54:39;;;;;;;6.57;5.30;;;19.10;99.90;;;;;;2126364;27;20031;-69
2022/07/23 01:55:40;;;;;;;5.95;5.38;;;19.10;99.90;;;;;;2124711;27;20015;-69
2022/07/23 01:56:40;;;;;;;7.35;6.00;;;19.10;99.90;;;;;;2126196;27;20021;-69
2022/07/23 01:57:41;;;;;;;7.63;6.88;;;19.10;99.90;;;;;;2127596;27;20477;-69
2022/07/23 01:58:42;;;;;;;8.15;7.15;;;19.10;99.90;;;;;;2129521;27;20058;-69
2022/07/23 01:59:42;;;;;;;7.47;5.85;;;19.10;99.90;;;;;;2125195;27;20023;-69
2022/07/23 02:00:43;;;;;;;8.18;6.78;;;19.10;99.90;;;;;;2126962;27;20121;-69
2022/07/23 02:01:43;;;;;;;7.22;6.53;;;19.10;99.90;;;;;;2129166;27;20031;-69
2022/07/23 02:02:44;;;;;;;9.73;7.13;;;19.10;99.90;;;;;;2126674;27;20105;-69
2022/07/23 02:03:45;;;;;;;6.78;5.90;;;19.10;99.90;;;;;;2128482;27;20046;-69
2022/07/23 02:04:45;;;;;;;10.63;7.32;;;19.10;99.90;;;;;;2128165;27;20389;-69
2022/07/23 02:05:46;;;;;;;9.25;7.53;;;19.10;99.90;;;;;;2127055;27;20031;-69
2022/07/23 02:06:46;;;;;;;8.75;7.90;;;19.10;99.90;;;;;;2129220;27;20058;-69
2022/07/23 02:07:47;;;;;;;8.40;7.55;;;19.10;99.90;;;;;;2127748;27;20047;-69
2022/07/23 02:08:48;;;;;;;6.50;5.13;;;19.10;99.90;;;;;;2126701;27;20520;-69
2022/07/23 02:09:48;;;;;;;8.23;6.82;;;19.00;99.90;;;;;;2127373;27;20023;-69
2022/07/23 02:10:51;;;;;;;8.68;7.25;;;19.10;99.90;;;;;;2126922;27;20456;-69
2022/07/23 02:11:51;;;;;;;10.20;6.00;;;19.10;99.90;;;;;;2126790;27;20486;-69
2022/07/23 02:12:52;;;;;;;7.65;6.95;;;19.10;99.90;;;;;;2128151;27;20393;-69
2022/07/23 02:13:53;;;;;;;5.88;5.30;;;19.10;99.90;;;;;;2127615;27;20048;-69
2022/07/23 02:14:53;;;;;;;8.63;7.40;;;19.00;99.90;;;;;;2129115;27;20018;-69
2022/07/23 02:15:54;;;;;;;9.48;7.63;;;19.00;99.90;;;;;;2128627;27;20022;-69
2022/07/23 02:16:54;;;;;;;7.30;6.60;;;19.00;99.90;;;;;;2127794;27;20101;-69
2022/07/23 02:17:55;;;;;;;8.75;7.85;;;19.00;99.90;;;;;;2127644;27;20522;-69
2022/07/23 02:18:56;;;;;;;9.18;6.60;;;19.10;99.90;;;;;;2125857;27;20045;-69
2022/07/23 02:19:56;;;;;;;7.85;5.80;;;19.00;99.90;;;;;;2124148;27;20055;-69
2022/07/23 02:20:57;;;;;;;7.13;6.40;;;19.00;99.90;;;;;;2126593;27;20042;-69
2022/07/23 02:21:58;;;;;;;5.15;4.65;;;19.00;99.90;;;;;;2127860;27;20027;-69
2022/07/23 02:22:58;;;;;;;8.75;6.97;;;19.00;99.90;;;;;;2123077;27;20026;-69
2022/07/23 02:23:59;;;;;;;8.85;6.97;;;19.00;99.90;;;;;;2126021;27;20114;-69
2022/07/23 02:24:59;;;;;;;7.50;5.95;;;19.00;99.90;;;;;;2126615;27;20168;-69
2022/07/23 02:26:00;;;;;;;6.90;5.68;;;19.00;99.90;;;;;;2123540;27;20038;-69
2022/07/23 02:27:00;;;;;;;6.90;6.10;;;19.00;99.90;;;;;;2125852;27;20113;-69
2022/07/23 02:28:02;;;;;;;6.82;5.82;;;19.00;99.90;;;;;;2124919;27;20474;-69
2022/07/23 02:29:04;;;;;;;5.95;5.40;;;19.00;99.90;;;;;;2130250;27;20026;-69
2022/07/23 02:30:05;;;;;;;8.98;6.72;;;19.00;99.90;;;;;;2125683;27;20515;-69
2022/07/23 02:31:06;;;;;;;7.53;6.88;;;19.00;99.90;;;;;;2130604;27;20050;-69
2022/07/23 02:32:07;;;;;;;6.93;6.22;;;19.00;99.90;;;;;;2128671;27;20027;-69
2022/07/23 02:33:07;;;;;;;9.07;7.40;;;19.00;99.90;;;;;;2131152;27;20091;-69
2022/07/23 02:34:11;;;;;;;7.40;6.70;;;19.00;99.90;;;;;;2126127;27;20030;-69
2022/07/23 02:35:12;;;;;;;10.32;8.20;;;19.00;99.90;;;;;;2128193;27;20425;-69
2022/07/23 02:36:12;;;;;;;10.85;8.68;;;19.00;99.90;;;;;;2123767;27;20091;-69
2022/07/23 02:37:13;;;;;;;7.22;6.53;;;19.00;99.90;;;;;;2124005;27;20019;-69
2022/07/23 02:38:14;;;;;;;7.65;6.95;;;19.00;99.90;;;;;;2124938;27;20039;-69
2022/07/23 02:39:14;;;;;;;9.65;8.75;;;18.90;99.90;;;;;;2129834;27;20018;-69
2022/07/23 02:40:15;;;;;;;10.20;7.47;;;18.90;99.90;;;;;;2128455;27;20362;-69
2022/07/23 02:41:19;;;;;;;8.98;7.78;;;18.90;99.90;;;;;;2130506;27;20026;-69
2022/07/23 02:42:19;;;;;;;12.60;6.80;;;19.00;99.90;;;;;;2129272;27;20023;-69
2022/07/23 02:43:20;;;;;;;12.10;8.38;;;18.90;99.90;;;;;;2130567;27;20019;-69
2022/07/23 02:44:21;;;;;;;9.18;8.05;;;18.90;99.90;;;;;;2128051;27;20015;-69
2022/07/23 02:45:21;;;;;;;7.85;7.05;;;18.90;99.90;;;;;;2125213;27;20072;-69
2022/07/23 02:46:22;;;;;;;6.40;5.80;;;18.90;99.90;;;;;;2126463;27;20485;-69
2022/07/23 02:47:22;;;;;;;6.60;5.22;;;18.90;99.90;;;;;;2129630;27;20065;-69
2022/07/23 02:48:23;;;;;;;10.50;7.55;;;18.90;99.90;;;;;;2128091;27;20011;-69
2022/07/23 02:49:23;;;;;;;6.40;5.72;;;18.90;99.90;;;;;;2130433;27;20134;-69
2022/07/23 02:50:24;;;;;;;9.73;8.50;;;18.90;99.90;;;;;;2130773;27;20023;-69
2022/07/23 02:51:25;;;;;;;8.02;6.82;;;18.90;99.90;;;;;;2130896;27;20076;-69
2022/07/23 02:52:25;;;;;;;7.53;6.72;;;18.90;99.90;;;;;;2128172;27;20058;-69
2022/07/23 02:53:26;;;;;;;8.18;7.38;;;18.90;99.90;;;;;;2125348;27;20022;-69
2022/07/23 02:54:26;;;;;;;7.05;6.43;;;18.80;99.90;;;;;;2129381;27;20386;-69
2022/07/23 02:55:28;;;;;;;10.43;8.13;;;18.80;99.90;;;;;;2127336;27;20083;-69
2022/07/23 02:56:28;;;;;;;9.80;7.75;;;18.90;99.90;;;;;;2128898;27;20023;-69
2022/07/23 02:57:29;;;;;;;7.22;6.63;;;18.90;99.90;;;;;;2126047;27;20047;-69
2022/07/23 02:58:29;;;;;;;7.43;6.70;;;18.80;99.90;;;;;;2128558;27;20037;-69
2022/07/23 02:59:30;;;;;;;8.02;7.30;;;18.80;99.90;;;;;;2130863;27;20029;-69
2022/07/23 03:00:31;;;;;;;9.60;7.38;;;18.80;99.90;;;;;;2129990;27;20398;-69
2022/07/23 03:01:32;;;;;;;10.35;8.98;;;18.80;99.90;;;;;;2129543;27;20026;-69
2022/07/23 03:02:33;;;;;;;12.18;8.85;;;18.80;99.90;;;;;;2129600;27;20071;-69
2022/07/23 03:03:34;;;;;;;9.50;7.25;;;18.80;99.90;;;;;;2127536;27;20474;-69
2022/07/23 03:04:34;;;;;;;11.75;7.68;;;18.80;99.90;;;;;;2128792;27;20027;-69
2022/07/23 03:05:35;;;;;;;9.00;7.18;;;18.70;99.90;;;;;;2129730;27;20035;-69
2022/07/23 03:06:36;;;;;;;7.82;7.07;;;18.80;99.90;;;;;;2128366;27;20023;-69
2022/07/23 03:07:36;;;;;;;8.93;8.13;;;18.70;99.90;;;;;;2128929;27;20103;-69
2022/07/23 03:08:37;;;;;;;8.55;7.75;;;18.70;99.90;;;;;;2127862;27;20019;-69
2022/07/23 03:09:37;;;;;;;8.63;7.78;;;18.70;99.90;;;;;;2129420;27;20045;-69
2022/07/23 03:10:38;;;;;;;8.10;6.07;;;18.70;99.90;;;;;;2129154;27;20026;-69
2022/07/23 03:11:38;;;;;;;10.95;8.10;;;18.70;99.90;;;;;;2127505;27;20465;-69
2022/07/23 03:12:39;;;;;;;11.32;8.02;;;18.70;99.90;;;;;;2129129;27;20018;-69
2022/07/23 03:13:40;;;;;;;8.77;8.00;;;18.70;99.90;;;;;;2128673;27;20462;-69
2022/07/23 03:14:41;;;;;;;10.50;7.55;;;18.60;99.90;;;;;;2128271;27;20469;-69
2022/07/23 03:15:42;;;;;;;8.68;7.68;;;18.70;99.90;;;;;;2127287;27;20482;-69
2022/07/23 03:16:43;;;;;;;8.75;7.65;;;18.70;99.90;;;;;;2129731;27;20042;-69
2022/07/23 03:17:44;;;;;;;9.82;7.30;;;18.60;99.90;;;;;;2119138;27;20161;-69
2022/07/23 03:18:45;;;;;;;9.63;5.78;;;18.60;99.90;;;;;;2119500;27;20015;-69
2022/07/23 03:19:45;;;;;;;8.68;7.88;;;18.60;99.90;;;;;;2124584;27;20099;-69
2022/07/23 03:20:46;;;;;;;6.95;6.25;;;18.60;99.90;;;;;;2129151;27;20551;-69
2022/07/23 03:21:47;;;;;;;8.10;6.55;;;18.60;99.90;;;;;;2123961;27;20035;-69
2022/07/23 03:22:47;;;;;;;8.32;7.53;;;18.60;99.90;;;;;;2125274;27;20023;-69
2022/07/23 03:23:48;;;;;;;8.82;8.05;;;18.60;99.90;;;;;;2125452;27;20538;-69
2022/07/23 03:24:54;;;;;;;10.45;9.02;;;18.60;99.90;;;;;;2127113;27;20351;-69
2022/07/23 03:25:55;;;;;;;10.02;8.30;;;18.60;99.90;;;;;;2124544;27;20026;-69
2022/07/23 03:26:55;;;;;;;7.35;6.70;;;18.60;99.90;;;;;;2126920;27;20022;-69
2022/07/23 03:27:56;;;;;;;9.68;6.93;;;18.60;99.90;;;;;;2127751;27;20022;-69
2022/07/23 03:28:57;;;;;;;8.80;7.32;;;18.60;99.90;;;;;;2129046;27;20015;-69
2022/07/23 03:29:59;;;;;;;9.80;6.90;;;18.60;99.90;;;;;;2127319;27;20101;-69
2022/07/23 03:30:59;;;;;;;9.02;7.97;;;18.60;99.90;;;;;;2124825;27;20019;-69
2022/07/23 03:32:01;;;;;;;9.38;7.65;;;18.50;99.90;;;;;;2127727;27;20022;-69
2022/07/23 03:33:02;;;;;;;7.78;7.07;;;18.50;99.90;;;;;;2128907;27;20458;-69
2022/07/23 03:34:02;;;;;;;9.77;7.40;;;18.50;99.90;;;;;;2127220;27;20427;-69
2022/07/23 03:35:04;;;;;;;7.95;7.07;;;18.50;99.90;;;;;;2128371;27;20449;-69
2022/07/23 03:36:05;;;;;;;6.40;5.80;;;18.50;99.90;;;;;;2128426;27;20018;-69
2022/07/23 03:37:06;;;;;;;8.30;6.95;;;18.50;99.90;;;;;;2127276;27;20051;-69
2022/07/23 03:38:06;;;;;;;9.23;8.20;;;18.50;99.90;;;;;;2127504;27;20497;-69
2022/07/23 03:39:07;;;;;;;9.43;8.48;;;18.50;99.90;;;;;;2127094;27;20015;-69
2022/07/23 03:40:08;;;;;;;10.50;8.38;;;18.50;99.90;;;;;;2127729;27;20492;-69
2022/07/23 03:41:08;;;;;;;6.95;6.35;;;18.50;99.90;;;;;;2127776;27;20063;-69
2022/07/23 03:42:09;;;;;;;8.73;7.90;;;18.50;99.90;;;;;;2128660;27;20030;-69
2022/07/23 03:43:10;;;;;;;8.13;7.32;;;18.50;99.90;;;;;;2130910;27;20359;-69
2022/07/23 03:44:10;;;;;;;9.57;8.55;;;18.40;99.90;;;;;;2128980;27;20019;-69
2022/07/23 03:45:11;;;;;;;11.02;9.15;;;18.40;99.90;;;;;;2125057;27;20466;-69
2022/07/23 03:46:12;;;;;;;9.90;7.00;;;18.40;99.90;;;;;;2125386;27;20014;-69
2022/07/23 03:47:13;;;;;;;5.90;5.25;;;18.40;99.90;;;;;;2125976;27;20385;-69
2022/07/23 03:48:13;;;;;;;8.82;7.93;;;18.40;99.90;;;;;;2128748;27;20045;-69
2022/07/23 03:49:14;;;;;;;16.98;8.00;;;18.40;99.90;;;;;;2125280;27;20430;-69
2022/07/23 03:50:15;;;;;;;9.13;7.40;;;18.40;99.90;;;;;;2127806;27;20419;-69
2022/07/23 03:51:15;;;;;;;6.38;5.70;;;18.40;99.90;;;;;;2127808;27;20090;-69
2022/07/23 03:52:16;;;;;;;8.05;6.45;;;18.40;99.90;;;;;;2128319;27;20023;-69
2022/07/23 03:53:16;;;;;;;7.85;7.15;;;18.30;99.90;;;;;;2124670;27;20018;-69
2022/07/23 03:54:17;;;;;;;8.18;6.20;;;18.30;99.90;;;;;;2127219;27;20019;-69
2022/07/23 03:55:18;;;;;;;7.30;6.45;;;18.30;99.90;;;;;;2126105;27;20027;-69
2022/07/23 03:56:18;;;;;;;6.90;6.40;;;18.30;99.90;;;;;;2125020;27;20067;-69
2022/07/23 03:57:19;;;;;;;7.20;6.40;;;18.30;99.90;;;;;;2128495;27;20067;-69
2022/07/23 03:58:19;;;;;;;7.22;6.53;;;18.30;99.90;;;;;;2127133;27;20156;-69
2022/07/23 03:59:20;;;;;;;7.00;6.40;;;18.30;99.90;;;;;;2126784;27;20058;-69
2022/07/23 04:00:21;;;;;;;7.53;6.78;;;18.20;99.90;;;;;;2128410;27;20023;-69
2022/07/23 04:01:21;;;;;;;7.22;6.63;;;18.20;99.90;;;;;;2128719;27;20025;-69
2022/07/23 04:02:22;;;;;;;8.05;7.30;;;18.20;99.90;;;;;;2125458;27;20051;-69
2022/07/23 04:03:22;;;;;;;7.10;6.25;;;18.20;99.90;;;;;;2125234;27;20030;-69
2022/07/23 04:04:23;;;;;;;8.25;6.30;;;18.20;99.90;;;;;;2126243;27;20019;-69
2022/07/23 04:05:24;;;;;;;9.30;6.03;;;18.20;99.90;;;;;;2127758;27;20038;-69
2022/07/23 04:06:24;;;;;;;6.30;5.70;;;18.10;99.90;;;;;;2126190;27;20027;-69
2022/07/23 04:07:25;;;;;;;8.40;7.18;;;18.10;99.90;;;;;;2127797;27;20874;-69
2022/07/23 04:08:25;;;;;;;6.75;6.15;;;18.10;99.90;;;;;;2127124;27;20019;-69
2022/07/23 04:09:26;;;;;;;8.32;7.15;;;18.10;99.90;;;;;;2126664;27;20054;-69
2022/07/23 04:10:27;;;;;;;7.40;6.20;;;18.10;99.90;;;;;;2126315;27;20482;-70
2022/07/23 04:11:27;;;;;;;6.78;6.10;;;18.10;99.90;;;;;;2125036;27;20047;-69
2022/07/23 04:12:28;;;;;;;7.90;7.20;;;18.10;99.90;;;;;;2125626;27;20019;-69
2022/07/23 04:13:28;;;;;;;6.63;6.13;;;18.10;99.90;;;;;;2125985;27;20485;-69
2022/07/23 04:14:29;;;;;;;7.32;6.75;;;18.10;99.90;;;;;;2125282;27;20027;-69
2022/07/23 04:15:30;;;;;;;7.07;6.53;;;18.00;99.90;;;;;;2125971;27;20470;-69
2022/07/23 04:16:33;;;;;;;7.43;6.53;;;18.00;99.90;;;;;;2126611;27;20033;-69
2022/07/23 04:17:34;;;;;;;7.22;6.47;;;18.00;99.90;;;;;;2123077;27;20026;-69
2022/07/23 04:18:34;;;;;;;8.60;6.35;;;18.00;99.90;;;;;;2124183;27;20023;-69
2022/07/23 04:19:39;;;;;;;8.23;7.53;;;18.00;99.90;;;;;;2118822;27;20389;-69
2022/07/23 04:20:40;;;;;;;7.40;6.78;;;18.00;99.90;;;;;;2118459;27;20027;-69
2022/07/23 04:21:40;;;;;;;8.63;7.80;;;18.00;99.90;;;;;;2127448;27;20025;-69
2022/07/23 04:22:41;;;;;;;8.25;6.68;;;18.00;99.90;;;;;;2125656;27;20057;-69
2022/07/23 04:23:42;;;;;;;9.05;7.68;;;18.00;99.90;;;;;;2127311;27;20067;-69
2022/07/23 04:24:42;;;;;;;9.40;8.35;;;18.00;99.90;;;;;;2127133;27;20415;-69
2022/07/23 04:25:43;;;;;;;10.27;9.27;;;18.00;99.90;;;;;;2127184;27;20101;-69
2022/07/23 04:26:44;;;;;;;10.35;9.32;;;18.00;99.90;;;;;;2127192;27;20022;-69
2022/07/23 04:27:45;;;;;;;10.57;8.80;;;18.00;99.90;;;;;;2124824;27;20067;-69
2022/07/23 04:28:45;;;;;;;10.60;9.40;;;18.00;99.90;;;;;;2126679;27;20080;-69
2022/07/23 04:29:46;;;;;;;9.77;8.88;;;18.00;99.90;;;;;;2126561;27;20019;-69
2022/07/23 04:30:46;;;;;;;8.10;6.88;;;18.00;99.90;;;;;;2124390;27;20018;-69
2022/07/23 04:31:47;;;;;;;8.55;6.72;;;18.00;99.90;;;;;;2126801;27;20097;-69
2022/07/23 04:32:47;;;;;;;8.35;7.63;;;18.00;99.90;;;;;;2125529;27;20050;-69
2022/07/23 04:33:48;;;;;;;6.95;6.35;;;18.00;99.90;;;;;;2128270;27;20132;-69
2022/07/23 04:34:49;;;;;;;9.38;6.22;;;18.00;99.90;;;;;;2126072;27;20029;-69
2022/07/23 04:35:49;;;;;;;6.75;6.05;;;18.00;99.90;;;;;;2126088;27;20030;-69
2022/07/23 04:36:50;;;;;;;8.13;5.13;;;18.00;99.90;;;;;;2125549;27;20538;-69
2022/07/23 04:37:50;;;;;;;7.88;6.07;;;18.00;99.90;;;;;;2124193;27;20094;-69
2022/07/23 04:38:51;;;;;;;8.00;6.80;;;18.00;99.90;;;;;;2125309;27;20071;-69
2022/07/23 04:39:52;;;;;;;8.40;7.60;;;18.00;99.90;;;;;;2128515;27;20023;-69
2022/07/23 04:40:52;;;;;;;6.20;5.70;;;18.10;99.90;;;;;;2127234;27;20386;-69
2022/07/23 04:41:53;;;;;;;8.25;7.38;;;18.10;99.90;;;;;;2127585;27;20481;-69
2022/07/23 04:42:54;;;;;;;8.20;7.40;;;18.20;99.90;;;;;;2126000;27;20019;-69
2022/07/23 04:43:56;;;;;;;11.88;7.07;;;18.20;99.90;;;;;;2126547;27;20042;-69
2022/07/23 04:44:57;;;;;;;8.63;7.82;;;18.20;99.90;;;;;;2123675;27;20023;-69
2022/07/23 04:45:58;;;;;;;7.35;6.75;;;18.20;99.90;;;;;;2123249;27;20030;-69
2022/07/23 04:46:58;;;;;;;7.65;7.00;;;18.20;99.90;;;;;;2123914;27;20027;-69
2022/07/23 04:47:59;;;;;;;10.48;8.05;;;18.30;99.90;;;;;;2128157;27;20025;-69
2022/07/23 04:48:59;;;;;;;9.23;8.15;;;18.30;99.90;;;;;;2127787;27;20489;-69
2022/07/23 04:50:00;;;;;;;9.52;8.40;;;18.30;99.90;;;;;;2127885;27;20015;-69
2022/07/23 04:51:00;;;;;;;10.75;9.63;;;18.30;99.90;;;;;;2126731;27;20032;-69
2022/07/23 04:52:01;;;;;;;9.63;8.23;;;18.30;99.90;;;;;;2128475;27;20014;-69
2022/07/23 04:53:02;;;;;;;9.02;8.13;;;18.30;99.90;;;;;;2125297;27;20022;-69
2022/07/23 04:54:03;;;;;;;7.88;7.10;;;18.40;99.90;;;;;;2128648;27;20023;-69
2022/07/23 04:55:04;;;;;;;9.27;8.38;;;18.40;99.90;;;;;;2125018;27;20072;-69
2022/07/23 04:56:05;;;;;;;9.30;8.45;;;18.40;99.90;;;;;;2125736;27;20071;-69
2022/07/23 04:57:06;;;;;;;7.32;6.30;;;18.40;99.90;;;;;;2126832;27;20407;-69
2022/07/23 04:58:06;;;;;;;9.38;8.57;;;18.50;99.90;;;;;;2126584;27;20034;-69
2022/07/23 04:59:07;;;;;;;10.35;9.43;;;18.50;99.90;;;;;;2127963;27;20500;-69
2022/07/23 05:00:08;;;;;;;8.27;7.47;;;18.50;99.90;;;;;;2128813;27;20011;-69
2022/07/23 05:01:09;;;;;;;10.10;9.13;;;18.50;99.90;;;;;;2129157;27;20480;-69
2022/07/23 05:02:10;;;;;;;8.85;8.05;;;18.60;99.90;;;;;;2125307;27;20378;-69
2022/07/23 05:03:10;;;;;;;10.40;9.32;;;18.60;99.90;;;;;;2123910;27;20026;-69
2022/07/23 05:04:11;;;;;;;10.20;9.23;;;18.70;99.90;;;;;;2122862;27;20023;-69
2022/07/23 05:05:11;;;;;;;9.30;8.45;;;18.70;99.90;;;;;;2126637;27;20015;-69
2022/07/23 05:06:12;;;;;;;9.55;7.78;;;18.70;99.90;;;;;;2127149;27;20042;-69
2022/07/23 05:07:13;;;;;;;9.40;8.48;;;18.70;99.90;;;;;;2125545;27;20023;-69
2022/07/23 05:08:13;;;;;;;10.73;9.65;;;18.80;99.90;;;;;;2124882;27;20114;-69
2022/07/23 05:09:14;;;;;;;10.40;9.48;;;18.80;99.90;;;;;;2128242;27;20018;-69
2022/07/23 05:10:14;;;;;;;11.93;8.93;;;18.80;99.90;;;;;;2124714;27;20416;-69
2022/07/23 05:11:15;;;;;;;9.52;8.63;;;18.90;99.90;;;;;;2123261;27;20018;-69
2022/07/23 05:12:16;;;;;;;10.90;9.35;;;18.90;99.90;;;;;;2128296;27;20010;-69
2022/07/23 05:13:17;;;;;;;11.50;9.30;;;19.00;99.90;;;;;;2126789;27;20067;-69
2022/07/23 05:14:17;;;;;;;14.63;9.27;;;19.00;99.90;;;;;;2122138;27;20055;-69
2022/07/23 05:15:18;;;;;;;10.38;9.32;;;19.00;99.90;;;;;;2126840;27;20486;-69
2022/07/23 05:16:18;;;;;;;10.90;8.80;;;19.10;99.90;;;;;;2124502;27;20864;-69